Time;durP1;ratioP1;P1;durP2;ratioP2;P2;SDS_P1;SDS_P2;PMS_P1;PMS_P2;Temp;Humidity;BMP_temperature;BMP_pressure;BME280_temperature;BME280_humidity;BME280_pressure;Samples;Min_cycle;Max_cycle;Signal;HPM_P1;HPM_P2
2023/03/03 00:01:46;;;;;;;153.25;61.88;;;4.30;99.90;;;;;;5035986;28;20033;-64
2023/03/03 00:04:12;;;;;;;149.50;62.42;;;4.40;99.90;;;;;;5036264;28;20027;-65
2023/03/03 00:06:38;;;;;;;155.73;63.50;;;4.50;99.90;;;;;;5035673;28;20052;-64
2023/03/03 00:09:04;;;;;;;177.10;71.53;;;4.60;99.90;;;;;;5036070;28;20025;-64
2023/03/03 00:11:30;;;;;;;182.45;71.57;;;4.50;99.90;;;;;;5034749;28;20049;-65
2023/03/03 00:13:56;;;;;;;181.68;73.50;;;4.60;99.90;;;;;;5035768;28;20457;-64
2023/03/03 00:16:34;;;;;;;178.70;71.47;;;4.70;99.90;;;;;;5034974;28;20442;-65
2023/03/03 00:19:01;;;;;;;188.38;71.20;;;4.70;99.90;;;;;;5035835;28;20109;-64
2023/03/03 00:21:28;;;;;;;184.32;69.55;;;4.60;99.90;;;;;;5035799;28;20052;-64
2023/03/03 00:24:15;;;;;;;173.65;69.63;;;4.70;99.90;;;;;;5035611;28;20459;-64
2023/03/03 00:26:45;;;;;;;180.85;70.78;;;4.70;99.90;;;;;;5035517;28;20398;-64
2023/03/03 00:29:34;;;;;;;183.73;71.80;;;4.80;99.90;;;;;;5034646;28;20033;-64
2023/03/03 00:32:49;;;;;;;175.90;72.85;;;4.70;99.90;;;;;;5034218;28;20030;-64
2023/03/03 00:35:34;;;;;;;195.70;76.35;;;4.70;99.90;;;;;;4977419;28;20037;-64
2023/03/03 00:38:10;;;;;;;184.45;73.75;;;4.70;99.90;;;;;;4993660;28;20046;-64
2023/03/03 00:40:38;;;;;;;183.70;72.55;;;4.70;99.90;;;;;;4938668;29;20043;-64
2023/03/03 00:43:23;;;;;;;183.18;74.25;;;4.70;99.90;;;;;;4954288;29;20115;-64
2023/03/03 00:45:57;;;;;;;197.55;74.85;;;4.70;99.90;;;;;;4938597;29;20045;-64
2023/03/03 00:48:30;;;;;;;187.48;74.00;;;4.80;99.90;;;;;;4954796;29;20039;-64
2023/03/03 00:50:58;;;;;;;180.48;71.15;;;4.70;99.90;;;;;;4938509;29;20460;-64
2023/03/03 00:53:26;;;;;;;177.80;69.00;;;4.70;99.90;;;;;;4938518;29;20505;-64
2023/03/03 00:55:53;;;;;;;173.52;71.30;;;4.70;99.90;;;;;;4954233;29;20043;-64
2023/03/03 00:58:21;;;;;;;172.00;69.40;;;4.60;99.90;;;;;;4938265;29;20521;-64
2023/03/03 01:00:52;;;;;;;179.60;73.15;;;4.60;99.90;;;;;;4938126;29;20035;-64
2023/03/03 01:03:24;;;;;;;181.27;74.97;;;4.60;99.90;;;;;;4938113;29;20043;-64
2023/03/03 01:05:52;;;;;;;207.35;81.63;;;4.60;99.90;;;;;;4954050;29;20045;-64
2023/03/03 01:08:18;;;;;;;202.02;83.38;;;4.60;99.90;;;;;;4961552;28;20478;-64
2023/03/03 01:10:50;;;;;;;203.80;83.50;;;4.60;99.90;;;;;;5014831;28;20380;-64
2023/03/03 01:13:17;;;;;;;202.45;82.43;;;4.50;99.90;;;;;;5030287;28;20087;-64
2023/03/03 01:15:43;;;;;;;215.57;88.72;;;4.60;99.90;;;;;;5030053;28;20037;-64
2023/03/03 01:18:12;;;;;;;222.27;90.72;;;4.60;99.90;;;;;;5014763;28;20399;-64
2023/03/03 01:20:39;;;;;;;219.77;92.88;;;4.60;99.90;;;;;;5029959;28;20032;-64
2023/03/03 01:23:05;;;;;;;227.52;92.57;;;4.70;99.90;;;;;;5014698;28;20105;-64
2023/03/03 01:25:31;;;;;;;224.32;91.95;;;4.70;99.90;;;;;;5014786;28;20053;-64
2023/03/03 01:27:58;;;;;;;230.82;92.45;;;4.60;99.90;;;;;;5014699;28;20501;-64
2023/03/03 01:30:25;;;;;;;254.30;100.20;;;4.60;99.90;;;;;;5029836;28;20503;-64
2023/03/03 01:32:51;;;;;;;254.57;98.45;;;4.60;99.90;;;;;;5013187;28;20179;-64
2023/03/03 01:35:17;;;;;;;231.98;95.03;;;4.50;99.90;;;;;;5014797;28;20026;-64
2023/03/03 01:37:43;;;;;;;318.95;111.97;;;4.50;99.90;;;;;;5014555;28;20030;-64
2023/03/03 01:40:17;;;;;;;230.98;94.80;;;4.50;99.90;;;;;;5031656;28;20036;-64
2023/03/03 01:42:43;;;;;;;261.55;102.50;;;4.40;99.90;;;;;;5049425;28;20041;-64
2023/03/03 01:45:26;;;;;;;258.20;106.03;;;4.40;99.90;;;;;;5054252;28;20029;-64
2023/03/03 01:48:18;;;;;;;283.85;107.97;;;4.40;99.90;;;;;;5053883;28;20021;-64
2023/03/03 01:50:50;;;;;;;274.33;102.50;;;4.40;99.90;;;;;;5025652;28;20037;-64
2023/03/03 01:53:21;;;;;;;226.48;93.05;;;4.40;99.90;;;;;;5054210;28;20146;-64
2023/03/03 01:55:50;;;;;;;344.23;109.28;;;4.40;99.90;;;;;;5035871;28;20035;-64
2023/03/03 01:58:21;;;;;;;229.23;89.25;;;4.20;99.90;;;;;;5054083;28;20386;-64
2023/03/03 02:00:54;;;;;;;182.55;82.57;;;4.20;99.90;;;;;;5053892;28;20037;-64
2023/03/03 02:03:22;;;;;;;220.88;87.05;;;4.40;99.90;;;;;;5054002;28;20025;-64
2023/03/03 02:05:51;;;;;;;201.45;81.40;;;4.40;99.90;;;;;;5035780;28;20037;-64
2023/03/03 02:08:20;;;;;;;265.40;91.15;;;4.50;99.90;;;;;;5035784;28;20060;-64
2023/03/03 02:10:47;;;;;;;254.50;91.18;;;4.50;99.90;;;;;;5053842;28;20025;-64
2023/03/03 02:13:14;;;;;;;228.45;90.90;;;4.40;99.90;;;;;;5053890;28;20429;-64
2023/03/03 02:15:40;;;;;;;225.55;89.72;;;4.40;99.90;;;;;;5053456;28;20029;-64
2023/03/03 02:18:11;;;;;;;252.15;98.65;;;4.30;99.90;;;;;;5053678;28;20497;-64
2023/03/03 02:20:56;;;;;;;224.70;91.65;;;4.30;99.90;;;;;;5053608;28;20051;-64
2023/03/03 02:23:28;;;;;;;287.83;98.18;;;4.30;99.90;;;;;;5053653;28;20028;-64
2023/03/03 02:25:55;;;;;;;256.45;97.70;;;4.30;99.90;;;;;;5035914;28;20119;-64
2023/03/03 02:28:23;;;;;;;248.57;94.03;;;4.40;99.90;;;;;;5019480;28;20375;-64
2023/03/03 02:30:52;;;;;;;239.07;91.93;;;4.40;99.90;;;;;;5035551;28;20037;-64
2023/03/03 02:33:18;;;;;;;287.67;106.25;;;4.40;99.90;;;;;;5053738;28;20063;-64
2023/03/03 02:35:46;;;;;;;274.90;95.88;;;4.40;99.90;;;;;;5053869;28;20025;-64
2023/03/03 02:38:26;;;;;;;256.17;96.13;;;4.50;99.90;;;;;;5053605;28;20387;-64
2023/03/03 02:41:20;;;;;;;245.63;91.88;;;4.60;99.90;;;;;;5057305;28;20501;-64
2023/03/03 02:44:04;;;;;;;255.02;95.65;;;4.60;99.90;;;;;;5038929;28;20048;-64
2023/03/03 02:46:34;;;;;;;228.15;90.55;;;4.50;99.90;;;;;;5039398;28;20052;-64
2023/03/03 02:49:00;;;;;;;225.48;87.70;;;4.50;99.90;;;;;;5039570;28;20120;-64
2023/03/03 02:51:26;;;;;;;239.45;93.25;;;4.50;99.90;;;;;;5039477;28;20040;-64
2023/03/03 02:53:52;;;;;;;228.18;93.07;;;4.50;99.90;;;;;;5057249;28;20394;-64
2023/03/03 02:56:19;;;;;;;230.27;93.15;;;4.50;99.90;;;;;;5039219;28;20040;-64
2023/03/03 02:58:45;;;;;;;225.55;88.00;;;4.50;99.90;;;;;;5057104;28;20043;-64
2023/03/03 03:01:11;;;;;;;241.15;93.03;;;4.60;99.90;;;;;;5039359;28;20490;-64
2023/03/03 03:03:38;;;;;;;206.00;82.43;;;4.60;99.90;;;;;;5039035;28;20061;-64
2023/03/03 03:06:06;;;;;;;203.35;83.65;;;4.50;99.90;;;;;;5039169;28;20103;-64
2023/03/03 03:08:33;;;;;;;223.48;82.32;;;4.50;99.90;;;;;;5039000;28;20029;-64
2023/03/03 03:10:59;;;;;;;195.85;76.00;;;4.50;99.90;;;;;;5039023;28;20063;-64
2023/03/03 03:13:26;;;;;;;167.48;74.60;;;4.40;99.90;;;;;;5039066;28;20041;-64
2023/03/03 03:15:53;;;;;;;194.43;78.65;;;4.40;99.90;;;;;;5055484;28;20028;-64
2023/03/03 03:18:19;;;;;;;187.73;79.93;;;4.30;99.90;;;;;;5056857;28;20036;-64
2023/03/03 03:20:45;;;;;;;184.77;80.72;;;4.40;99.90;;;;;;5055358;28;20029;-64
2023/03/03 03:23:11;;;;;;;194.90;82.05;;;4.40;99.90;;;;;;5056711;28;20036;-64
2023/03/03 03:25:44;;;;;;;206.80;82.60;;;4.40;99.90;;;;;;5038651;28;20036;-64
2023/03/03 03:28:15;;;;;;;197.98;78.63;;;4.40;99.90;;;;;;5038772;28;20036;-64
2023/03/03 03:30:44;;;;;;;215.27;87.80;;;4.40;99.90;;;;;;5038450;28;20079;-64
2023/03/03 03:33:10;;;;;;;234.88;91.82;;;4.30;99.90;;;;;;5038638;28;20040;-64
2023/03/03 03:35:37;;;;;;;209.82;86.03;;;4.40;99.90;;;;;;5038488;28;20037;-64
2023/03/03 03:38:03;;;;;;;207.30;84.40;;;4.40;99.90;;;;;;5038872;28;20036;-63
2023/03/03 03:40:29;;;;;;;215.15;87.57;;;4.50;99.90;;;;;;5035306;28;20033;-64
2023/03/03 03:42:55;;;;;;;215.63;87.10;;;4.50;99.90;;;;;;5036272;28;20053;-64
2023/03/03 03:45:22;;;;;;;238.05;92.50;;;4.50;99.90;;;;;;5035164;28;20025;-64
2023/03/03 03:47:49;;;;;;;223.20;86.75;;;4.50;99.90;;;;;;5034972;28;20033;-64
2023/03/03 03:50:15;;;;;;;216.55;89.10;;;4.50;99.90;;;;;;5034995;28;20036;-64
2023/03/03 03:52:42;;;;;;;226.93;90.53;;;4.40;99.90;;;;;;5034913;28;20538;-64
2023/03/03 03:55:09;;;;;;;201.98;83.60;;;4.40;99.90;;;;;;5051490;28;20040;-64
2023/03/03 03:57:37;;;;;;;202.70;81.47;;;4.40;99.90;;;;;;5034885;28;20033;-64
2023/03/03 04:00:07;;;;;;;223.13;87.97;;;4.40;99.90;;;;;;5034955;28;20034;-64
2023/03/03 04:02:39;;;;;;;200.98;83.40;;;4.20;99.90;;;;;;5035890;28;20116;-64
2023/03/03 04:05:08;;;;;;;223.68;86.90;;;4.30;99.90;;;;;;5034832;28;20037;-64
2023/03/03 04:07:35;;;;;;;231.10;90.32;;;4.10;99.90;;;;;;5034595;28;20025;-65
2023/03/03 04:10:01;;;;;;;241.68;89.28;;;4.10;99.90;;;;;;5034742;28;20329;-64
2023/03/03 04:12:27;;;;;;;188.93;79.00;;;4.00;99.90;;;;;;5036039;28;20032;-64
2023/03/03 04:14:53;;;;;;;226.63;84.72;;;4.10;99.90;;;;;;5034681;28;20068;-64
2023/03/03 04:17:23;;;;;;;191.00;80.65;;;4.10;99.90;;;;;;5034299;28;20034;-64
2023/03/03 04:19:52;;;;;;;172.55;73.18;;;4.20;99.90;;;;;;5034394;28;20124;-64
2023/03/03 04:22:18;;;;;;;181.77;76.40;;;4.30;99.90;;;;;;5034368;28;20080;-64
2023/03/03 04:24:47;;;;;;;195.13;78.60;;;4.20;99.90;;;;;;5034322;28;20032;-64
2023/03/03 04:27:14;;;;;;;191.57;80.25;;;4.20;99.90;;;;;;5034527;28;20022;-64
2023/03/03 04:29:41;;;;;;;179.48;78.97;;;4.10;99.90;;;;;;5034185;28;20022;-64
2023/03/03 04:32:07;;;;;;;206.65;86.05;;;4.10;99.90;;;;;;5035545;28;20037;-64
2023/03/03 04:34:33;;;;;;;170.70;76.55;;;4.10;99.90;;;;;;5034479;28;20041;-64
2023/03/03 04:37:00;;;;;;;156.55;72.95;;;4.10;99.90;;;;;;5034288;28;20034;-64
2023/03/03 04:39:27;;;;;;;147.60;68.72;;;4.10;99.90;;;;;;5054132;28;20064;-64
2023/03/03 04:41:54;;;;;;;159.00;71.75;;;4.10;99.90;;;;;;5037289;28;20044;-64
2023/03/03 04:44:21;;;;;;;153.77;72.82;;;4.20;99.90;;;;;;5037389;28;20025;-64
2023/03/03 04:46:47;;;;;;;148.80;69.88;;;4.30;99.90;;;;;;5037202;28;20029;-64
2023/03/03 04:49:14;;;;;;;154.77;71.15;;;4.30;99.90;;;;;;5037505;28;20606;-64
2023/03/03 04:51:41;;;;;;;163.77;69.30;;;4.30;99.90;;;;;;5037152;28;20391;-64
2023/03/03 04:54:08;;;;;;;152.30;69.88;;;4.40;99.90;;;;;;5037109;28;20056;-64
2023/03/03 04:56:34;;;;;;;161.07;71.45;;;4.40;99.90;;;;;;5037066;28;20116;-64
2023/03/03 04:59:00;;;;;;;147.38;70.15;;;4.40;99.90;;;;;;5037044;28;20120;-64
2023/03/03 05:01:27;;;;;;;161.75;73.80;;;4.40;99.90;;;;;;5036741;28;20087;-64
2023/03/03 05:03:52;;;;;;;169.07;75.70;;;4.30;99.90;;;;;;5036813;28;20033;-64
2023/03/03 05:06:19;;;;;;;169.45;73.32;;;4.20;99.90;;;;;;5036865;28;20029;-64
2023/03/03 05:08:45;;;;;;;159.98;71.65;;;4.20;99.90;;;;;;5054676;28;20459;-64
2023/03/03 05:11:12;;;;;;;176.63;75.55;;;4.20;99.90;;;;;;5054920;28;20078;-64
2023/03/03 05:13:39;;;;;;;186.50;74.97;;;4.20;99.90;;;;;;5054446;28;20033;-64
2023/03/03 05:16:05;;;;;;;195.32;79.13;;;4.30;99.90;;;;;;5054820;28;20129;-63
2023/03/03 05:18:31;;;;;;;174.75;73.80;;;4.20;99.90;;;;;;5054586;28;20025;-64
2023/03/03 05:20:57;;;;;;;184.23;77.97;;;4.20;99.90;;;;;;5054670;28;20044;-64
2023/03/03 05:23:23;;;;;;;163.93;71.68;;;4.30;99.90;;;;;;5054494;28;20308;-64
2023/03/03 05:25:50;;;;;;;157.68;72.15;;;4.30;99.90;;;;;;5054393;28;20078;-64
2023/03/03 05:28:16;;;;;;;180.30;76.68;;;4.30;99.90;;;;;;5054504;28;20029;-64
2023/03/03 05:30:43;;;;;;;175.88;77.60;;;4.20;99.90;;;;;;5054174;28;20021;-64
2023/03/03 05:33:12;;;;;;;191.10;78.60;;;4.20;99.90;;;;;;5054525;28;20029;-64
2023/03/03 05:35:38;;;;;;;189.77;77.85;;;4.30;99.90;;;;;;5054450;28;20108;-64
2023/03/03 05:38:04;;;;;;;186.07;76.75;;;4.30;99.90;;;;;;5054240;28;20064;-64
2023/03/03 05:40:31;;;;;;;203.23;82.68;;;4.20;99.90;;;;;;5034420;28;20395;-64
2023/03/03 05:42:57;;;;;;;198.93;80.75;;;4.20;99.90;;;;;;5034026;28;20076;-64
2023/03/03 05:45:23;;;;;;;175.30;75.65;;;4.20;99.90;;;;;;5034319;28;20448;-64
2023/03/03 05:47:53;;;;;;;191.68;77.50;;;4.20;99.90;;;;;;5034128;28;20550;-64
2023/03/03 05:50:22;;;;;;;173.90;75.70;;;4.20;99.90;;;;;;5034174;28;20052;-64
2023/03/03 05:52:50;;;;;;;167.27;73.13;;;4.20;99.90;;;;;;5034158;28;20100;-64
2023/03/03 05:55:16;;;;;;;203.02;84.60;;;4.10;99.90;;;;;;5034404;28;20029;-64
2023/03/03 05:57:42;;;;;;;161.73;73.72;;;4.00;99.90;;;;;;5034076;28;20487;-64
2023/03/03 06:00:09;;;;;;;167.27;76.32;;;4.00;99.90;;;;;;5034264;28;20033;-64
2023/03/03 06:02:39;;;;;;;187.85;87.43;;;4.10;99.90;;;;;;5033810;28;20040;-64
2023/03/03 06:05:05;;;;;;;195.65;91.93;;;4.20;99.90;;;;;;5034187;28;20018;-64
2023/03/03 06:07:32;;;;;;;179.20;83.80;;;4.20;99.90;;;;;;5033846;28;20363;-64
2023/03/03 06:09:57;;;;;;;200.45;96.53;;;4.20;99.90;;;;;;5034033;28;20037;-64
2023/03/03 06:12:24;;;;;;;193.65;83.72;;;4.20;99.90;;;;;;5032783;28;20091;-64
2023/03/03 06:14:50;;;;;;;186.30;74.65;;;4.30;99.90;;;;;;5036507;28;20033;-64
2023/03/03 06:17:16;;;;;;;197.77;81.72;;;4.40;99.90;;;;;;5038086;28;20375;-64
2023/03/03 06:19:42;;;;;;;176.68;75.05;;;4.40;99.90;;;;;;5037410;28;20026;-64
2023/03/03 06:22:07;;;;;;;184.73;78.05;;;4.50;99.90;;;;;;5038301;28;20033;-64
2023/03/03 06:24:34;;;;;;;185.07;79.57;;;4.50;99.90;;;;;;5038234;28;20021;-64
2023/03/03 06:27:00;;;;;;;190.82;85.43;;;4.50;99.90;;;;;;5038665;28;20101;-64
2023/03/03 06:29:27;;;;;;;188.63;81.20;;;4.50;99.90;;;;;;5038747;28;20780;-64
2023/03/03 06:31:53;;;;;;;177.55;74.97;;;4.60;99.90;;;;;;5038362;28;20488;-64
2023/03/03 06:34:19;;;;;;;155.65;68.45;;;4.60;99.90;;;;;;5037890;28;20171;-64
2023/03/03 06:36:45;;;;;;;157.80;67.22;;;4.70;99.90;;;;;;5035788;28;20049;-64
2023/03/03 06:39:11;;;;;;;175.88;78.53;;;4.70;99.90;;;;;;5045190;28;20335;-64
2023/03/03 06:41:37;;;;;;;166.30;72.30;;;4.70;99.90;;;;;;5037324;28;20064;-64
2023/03/03 06:44:03;;;;;;;176.32;71.30;;;4.70;99.90;;;;;;5037371;28;20030;-64
2023/03/03 06:46:29;;;;;;;157.15;67.57;;;4.80;99.90;;;;;;5037257;28;20064;-64
2023/03/03 06:48:55;;;;;;;168.20;68.35;;;4.70;99.90;;;;;;5037762;28;20467;-64
2023/03/03 06:51:30;;;;;;;179.52;73.32;;;4.80;99.90;;;;;;5037052;28;20104;-64
2023/03/03 06:53:58;;;;;;;195.80;86.68;;;4.80;99.90;;;;;;5037314;28;20052;-64
2023/03/03 06:56:26;;;;;;;205.80;85.95;;;4.70;99.90;;;;;;5037403;28;20029;-64
2023/03/03 06:59:01;;;;;;;214.05;88.10;;;4.70;99.90;;;;;;5037104;28;20045;-64
2023/03/03 07:01:33;;;;;;;194.23;80.07;;;4.70;99.90;;;;;;5035607;28;20497;-64
2023/03/03 07:03:59;;;;;;;212.73;88.60;;;4.80;99.90;;;;;;5037516;28;20108;-64
2023/03/03 07:06:27;;;;;;;212.40;90.15;;;4.90;99.90;;;;;;5035667;28;20037;-64
2023/03/03 07:08:56;;;;;;;228.13;95.50;;;4.80;99.90;;;;;;5036982;28;20030;-64
2023/03/03 07:11:26;;;;;;;240.70;96.25;;;4.80;99.90;;;;;;5036859;28;20392;-64
2023/03/03 07:13:56;;;;;;;229.90;96.30;;;4.80;99.90;;;;;;5049642;28;20033;-64
2023/03/03 07:16:26;;;;;;;245.55;101.38;;;4.90;99.90;;;;;;5056843;28;20061;-64
2023/03/03 07:19:04;;;;;;;;;;;4.90;99.90;;;;;;5056968;28;20123;-64
2023/03/03 07:21:33;;;;;;;226.13;97.38;;;5.00;99.90;;;;;;5055563;28;20278;-64
2023/03/03 07:24:07;;;;;;;217.40;93.25;;;4.90;99.90;;;;;;5056528;28;20032;-64
2023/03/03 07:26:33;;;;;;;223.27;96.00;;;4.90;99.90;;;;;;5056134;28;20021;-64
2023/03/03 07:29:13;;;;;;;220.68;97.75;;;5.00;99.90;;;;;;5055957;28;20029;-64
2023/03/03 07:31:40;;;;;;;243.88;105.03;;;5.00;99.90;;;;;;5056066;28;20052;-64
2023/03/03 07:34:20;;;;;;;282.08;127.10;;;5.00;99.90;;;;;;5055399;28;20060;-64
2023/03/03 07:36:48;;;;;;;235.63;103.72;;;5.00;99.90;;;;;;5053641;28;20474;-64
2023/03/03 07:39:39;;;;;;;228.68;101.43;;;5.10;99.90;;;;;;5055378;28;20608;-64
2023/03/03 07:42:34;;;;;;;221.82;101.75;;;5.10;99.90;;;;;;5055196;28;20040;-64
2023/03/03 07:45:30;;;;;;;245.60;111.85;;;5.10;99.90;;;;;;5037210;28;20029;-64
2023/03/03 07:48:13;;;;;;;225.48;102.15;;;5.30;99.90;;;;;;5056038;28;20060;-64
2023/03/03 07:50:40;;;;;;;235.77;103.38;;;5.20;99.90;;;;;;5039462;28;20365;-64
2023/03/03 07:53:20;;;;;;;234.20;106.13;;;5.20;99.90;;;;;;5036228;28;20025;-64
2023/03/03 07:55:46;;;;;;;250.18;112.68;;;5.30;99.90;;;;;;5036082;28;20037;-64
2023/03/03 07:58:15;;;;;;;243.10;106.60;;;5.30;99.90;;;;;;5035952;28;20038;-64
2023/03/03 08:00:44;;;;;;;255.82;109.55;;;5.20;99.90;;;;;;5034874;28;20082;-64
2023/03/03 08:03:20;;;;;;;293.65;122.15;;;5.20;99.90;;;;;;5044999;28;20029;-64
2023/03/03 08:05:47;;;;;;;272.98;120.70;;;5.10;99.90;;;;;;5055943;28;20021;-64
2023/03/03 08:08:29;;;;;;;257.58;112.47;;;5.10;99.90;;;;;;5056470;28;20025;-64
2023/03/03 08:10:57;;;;;;;251.77;108.45;;;5.20;99.90;;;;;;5056616;28;20469;-64
2023/03/03 08:13:37;;;;;;;263.40;109.32;;;5.20;99.90;;;;;;5056133;28;20403;-64
2023/03/03 08:16:09;;;;;;;221.00;98.70;;;5.10;99.90;;;;;;5056137;28;20078;-64
2023/03/03 08:18:38;;;;;;;234.15;98.35;;;5.30;99.90;;;;;;5056183;28;20029;-64
2023/03/03 08:21:21;;;;;;;211.80;89.90;;;5.40;99.90;;;;;;5056194;28;20025;-64
2023/03/03 08:23:50;;;;;;;215.13;88.75;;;5.40;99.90;;;;;;5056114;28;20064;-64
2023/03/03 08:26:17;;;;;;;214.27;88.43;;;5.50;99.90;;;;;;5056336;28;20021;-64
2023/03/03 08:28:44;;;;;;;220.20;85.18;;;5.60;99.90;;;;;;5056227;28;20104;-64
2023/03/03 08:31:11;;;;;;;224.38;91.55;;;5.50;99.90;;;;;;5056034;28;20420;-64
2023/03/03 08:33:38;;;;;;;207.73;82.38;;;5.40;99.90;;;;;;5055390;28;20024;-64
2023/03/03 08:36:06;;;;;;;226.73;87.07;;;5.40;99.90;;;;;;5054761;28;20029;-64
2023/03/03 08:38:32;;;;;;;227.40;87.70;;;5.50;99.90;;;;;;5052537;28;20029;-64
2023/03/03 08:41:00;;;;;;;232.73;88.88;;;5.50;99.90;;;;;;5055502;28;20545;-64
2023/03/03 08:43:26;;;;;;;242.95;91.88;;;5.50;99.90;;;;;;5055408;28;20043;-64
2023/03/03 08:45:57;;;;;;;239.23;91.07;;;5.50;99.90;;;;;;5055372;28;20526;-64
2023/03/03 08:48:22;;;;;;;259.45;93.95;;;5.60;99.90;;;;;;5052338;28;20075;-64
2023/03/03 08:50:48;;;;;;;252.73;98.43;;;5.60;99.90;;;;;;5054845;28;20037;-64
2023/03/03 08:53:15;;;;;;;259.85;98.22;;;5.50;99.90;;;;;;5055626;28;20033;-64
2023/03/03 08:55:41;;;;;;;247.90;95.35;;;5.50;99.90;;;;;;5053811;28;20032;-64
2023/03/03 08:58:07;;;;;;;271.10;101.13;;;5.40;99.90;;;;;;5053098;28;20055;-64
2023/03/03 09:00:34;;;;;;;274.13;103.90;;;5.50;99.90;;;;;;5054659;28;20032;-65
2023/03/03 09:03:01;;;;;;;262.83;100.43;;;5.70;99.90;;;;;;5054608;28;20028;-64
2023/03/03 09:05:27;;;;;;;235.18;94.43;;;5.60;99.90;;;;;;5054314;28;20025;-64
2023/03/03 09:07:54;;;;;;;246.85;97.32;;;5.60;99.90;;;;;;5054863;28;20375;-64
2023/03/03 09:10:30;;;;;;;240.23;97.45;;;5.70;99.90;;;;;;5053890;28;20079;-64
2023/03/03 09:13:05;;;;;;;256.13;99.40;;;5.70;99.90;;;;;;5048642;28;20482;-64
2023/03/03 09:15:37;;;;;;;268.15;105.05;;;5.80;99.90;;;;;;5054358;28;20118;-65
2023/03/03 09:18:21;;;;;;;247.82;98.93;;;5.80;99.90;;;;;;5049571;28;20025;-64
2023/03/03 09:20:49;;;;;;;273.40;107.70;;;5.80;99.90;;;;;;5046509;28;20032;-64
2023/03/03 09:23:29;;;;;;;244.88;103.20;;;5.80;99.90;;;;;;5053971;28;20060;-64
2023/03/03 09:26:01;;;;;;;231.60;92.10;;;5.90;99.90;;;;;;5054671;28;20027;-64
2023/03/03 09:28:31;;;;;;;228.48;90.25;;;5.80;99.90;;;;;;5035310;28;20410;-64
2023/03/03 09:31:00;;;;;;;214.55;85.80;;;6.00;99.90;;;;;;5035152;28;20092;-65
2023/03/03 09:33:46;;;;;;;158.07;68.50;;;5.90;99.90;;;;;;5035230;28;20034;-65
2023/03/03 09:36:36;;;;;;;187.50;74.28;;;5.90;99.90;;;;;;5035049;28;20061;-64
2023/03/03 09:39:25;;;;;;;190.18;74.65;;;6.00;99.90;;;;;;5034435;28;20045;-65
2023/03/03 09:41:54;;;;;;;175.18;71.15;;;5.80;99.90;;;;;;5054606;28;20637;-64
2023/03/03 09:44:41;;;;;;;181.18;75.65;;;6.00;99.90;;;;;;5054725;28;20036;-64
2023/03/03 09:47:17;;;;;;;178.55;73.95;;;6.20;99.90;;;;;;5054923;28;20107;-64
2023/03/03 09:50:04;;;;;;;172.98;73.20;;;6.10;99.90;;;;;;5054318;28;20368;-64
2023/03/03 09:53:13;;;;;;;177.02;74.88;;;6.20;99.90;;;;;;5054059;28;20112;-64
2023/03/03 09:55:48;;;;;;;168.38;66.25;;;6.30;99.90;;;;;;5053701;28;20052;-65
2023/03/03 09:58:29;;;;;;;168.90;68.28;;;6.40;99.90;;;;;;5054515;28;20084;-64
2023/03/03 10:01:22;;;;;;;165.50;67.38;;;6.40;99.90;;;;;;5054564;28;20092;-65
2023/03/03 10:04:21;;;;;;;152.73;66.85;;;6.30;99.90;;;;;;5054270;28;20039;-65
2023/03/03 10:07:14;;;;;;;152.02;70.25;;;6.40;99.90;;;;;;5054605;28;20029;-64
2023/03/03 10:09:43;;;;;;;212.73;83.88;;;6.50;99.90;;;;;;5054477;28;20368;-64
2023/03/03 10:12:32;;;;;;;205.23;84.25;;;6.40;99.90;;;;;;5054083;28;20027;-64
2023/03/03 10:15:09;;;;;;;209.38;85.45;;;6.60;99.90;;;;;;5054678;28;20025;-65
2023/03/03 10:18:03;;;;;;;192.85;79.63;;;6.60;99.90;;;;;;5054185;28;20041;-64
2023/03/03 10:20:38;;;;;;;184.60;75.90;;;6.60;99.90;;;;;;5054261;28;20021;-65
2023/03/03 10:23:12;;;;;;;181.50;74.50;;;6.40;99.90;;;;;;5053755;28;20044;-65
2023/03/03 10:25:42;;;;;;;188.25;76.97;;;6.50;99.90;;;;;;5053802;28;20025;-65
2023/03/03 10:28:39;;;;;;;177.57;72.15;;;6.60;99.90;;;;;;5054107;28;20103;-65
2023/03/03 10:31:18;;;;;;;182.88;74.13;;;6.50;99.90;;;;;;5053769;28;20025;-65
2023/03/03 10:34:03;;;;;;;208.23;81.32;;;6.60;99.90;;;;;;5053172;28;20110;-65
2023/03/03 10:36:56;;;;;;;221.13;81.38;;;6.50;99.90;;;;;;5052105;28;20111;-65
2023/03/03 10:39:52;;;;;;;210.30;79.15;;;6.60;99.90;;;;;;5052713;28;20025;-65
2023/03/03 10:42:50;;;;;;;254.50;92.00;;;6.50;99.90;;;;;;5053370;28;20041;-64
2023/03/03 10:45:49;;;;;;;240.63;89.28;;;6.70;99.90;;;;;;5050656;28;20025;-64
2023/03/03 10:48:21;;;;;;;244.30;90.45;;;6.70;99.90;;;;;;5052806;28;20029;-65
2023/03/03 10:51:14;;;;;;;281.17;98.88;;;6.80;99.90;;;;;;5033145;28;20459;-65
2023/03/03 10:54:03;;;;;;;300.10;102.82;;;6.80;99.90;;;;;;5051330;28;20485;-65
2023/03/03 10:56:44;;;;;;;312.90;106.68;;;6.90;99.90;;;;;;5051552;28;20029;-65
2023/03/03 10:59:35;;;;;;;294.92;101.95;;;7.00;99.90;;;;;;5048395;28;20038;-65
2023/03/03 11:02:26;;;;;;;300.85;103.68;;;7.10;99.90;;;;;;5057034;28;20093;-65
2023/03/03 11:05:10;;;;;;;265.30;93.07;;;7.10;99.90;;;;;;5056910;28;20037;-65
2023/03/03 11:07:47;;;;;;;247.25;92.43;;;7.00;99.90;;;;;;5056656;28;20086;-65
2023/03/03 11:10:51;;;;;;;241.65;92.53;;;7.00;99.90;;;;;;5056512;28;20025;-65
2023/03/03 11:13:20;;;;;;;207.02;83.70;;;7.10;99.90;;;;;;5056841;28;20313;-64
2023/03/03 11:16:13;;;;;;;198.77;81.30;;;7.10;99.90;;;;;;5056573;28;20500;-63
2023/03/03 11:19:23;;;;;;;187.88;78.20;;;7.20;99.90;;;;;;5056310;28;20029;-64
2023/03/03 11:22:12;;;;;;;167.18;71.03;;;7.10;99.90;;;;;;5056704;28;20032;-63
2023/03/03 11:25:22;;;;;;;261.75;92.30;;;7.20;99.90;;;;;;5056045;28;20120;-63
2023/03/03 11:28:13;;;;;;;287.33;98.38;;;7.20;99.90;;;;;;5011808;28;20036;-64
2023/03/03 11:31:20;;;;;;;290.15;93.30;;;7.10;99.90;;;;;;5055816;28;20032;-64
2023/03/03 11:34:05;;;;;;;305.98;99.38;;;7.20;99.90;;;;;;5009444;28;20368;-63
2023/03/03 11:36:35;;;;;;;312.27;95.55;;;7.10;99.90;;;;;;5042296;28;20746;-63
2023/03/03 11:39:15;;;;;;;310.13;99.53;;;7.10;99.90;;;;;;5044469;28;20025;-63
2023/03/03 11:42:15;;;;;;;291.42;96.15;;;7.10;99.90;;;;;;5036371;28;20352;-63
2023/03/03 11:44:50;;;;;;;256.77;86.40;;;7.20;99.90;;;;;;5040575;28;20064;-63
2023/03/03 11:47:39;;;;;;;281.23;93.15;;;7.10;99.90;;;;;;5057044;28;20076;-63
2023/03/03 11:50:27;;;;;;;300.15;94.50;;;7.10;99.90;;;;;;5056831;28;20029;-63
2023/03/03 11:53:11;;;;;;;301.00;99.47;;;7.20;99.90;;;;;;5056661;28;20108;-63
2023/03/03 11:55:44;;;;;;;299.40;105.03;;;7.20;99.90;;;;;;5056567;28;20587;-63
2023/03/03 11:58:19;;;;;;;311.58;99.72;;;7.20;99.90;;;;;;5056344;28;20040;-63
2023/03/03 12:01:03;;;;;;;297.65;101.93;;;7.20;99.90;;;;;;5055728;28;20100;-63
2023/03/03 12:04:09;;;;;;;295.60;102.47;;;7.20;99.90;;;;;;5054395;28;20107;-63
2023/03/03 12:07:01;;;;;;;275.42;97.75;;;7.20;99.90;;;;;;5034989;28;20502;-63
2023/03/03 12:09:57;;;;;;;265.73;100.70;;;7.20;99.90;;;;;;5050426;28;20470;-63
2023/03/03 12:12:32;;;;;;;285.08;103.22;;;7.30;99.90;;;;;;5053999;28;20021;-63
2023/03/03 12:15:03;;;;;;;286.13;104.10;;;7.20;99.90;;;;;;5045253;28;20083;-63
2023/03/03 12:17:48;;;;;;;304.73;109.38;;;7.30;99.90;;;;;;5037484;28;20075;-63
2023/03/03 12:20:25;;;;;;;270.17;99.78;;;7.30;99.90;;;;;;5055983;28;20025;-63
2023/03/03 12:23:05;;;;;;;262.17;101.53;;;7.30;99.90;;;;;;5052372;28;20416;-63
2023/03/03 12:25:46;;;;;;;245.85;96.07;;;7.40;99.90;;;;;;5052205;28;20364;-64
2023/03/03 12:28:26;;;;;;;233.20;96.63;;;7.60;99.90;;;;;;5051019;28;20029;-63
2023/03/03 12:31:21;;;;;;;250.13;97.53;;;7.60;99.90;;;;;;5052655;28;20459;-64
2023/03/03 12:34:11;;;;;;;223.23;90.10;;;7.60;99.90;;;;;;5054933;28;20266;-63
2023/03/03 12:37:04;;;;;;;206.27;87.30;;;7.70;99.90;;;;;;5053950;28;20033;-63
2023/03/03 12:39:45;;;;;;;195.85;85.60;;;7.80;99.90;;;;;;5054746;28;20492;-63
2023/03/03 12:42:23;;;;;;;212.77;88.28;;;7.70;99.90;;;;;;5053383;28;20045;-63
2023/03/03 12:45:33;;;;;;;189.15;83.78;;;7.80;99.90;;;;;;5053424;28;20025;-63
2023/03/03 12:48:13;;;;;;;185.63;79.97;;;7.70;99.90;;;;;;5046690;28;20479;-64
2023/03/03 12:51:08;;;;;;;184.82;82.88;;;7.60;99.90;;;;;;5052888;28;20347;-63
2023/03/03 12:53:39;;;;;;;169.05;77.43;;;7.60;99.90;;;;;;5036496;28;20033;-63
2023/03/03 12:56:17;;;;;;;169.32;77.25;;;7.70;99.90;;;;;;5054816;28;20471;-64
2023/03/03 12:58:59;;;;;;;159.77;76.22;;;7.60;99.90;;;;;;5053913;28;20036;-63